East Conneaut, Ohio
Current Conditions -  °F | °C
As of 8:53 PM on Sunday 21 Dec 2014 (Local Time) from KHZY Reporting Station
Overcast Overcast  
Wind Chill: 24°   Ceiling: 2600
Heat Index: 30°   Visibility: 10mi
Dew Point: 21°   Wind: 6mph
Humidity: 69%   Direction: 140°SE
Pressure: 30.25"   Gusts: NA
Location:  41.8949°N, 80.5816°W
Report Text: KHZY 220153Z AUTO 14005KT 10SM OVC026 M01/M06 A3025 RMK AO2 SLP253 T10111061
Loading
Personal Weather Stations






























Interactive Weather Map New forecast layout! Learn more

10-Day Weather Forecast

Advertisements
Track Severe Weather on mobile